Terminal Aerodrome Forecast
Issued by NWS St Louis, MO

Home | Current Version | Previous Version | Text Only | Print | Product List | Glossary On
Versions: 1 2 3 4 5 6 7 8 9 10 11 12 13 14 15 16 17 18 19
606
FTUS43 KLSX 271415 AAA
TAFCOU
TAF AMD
KCOU 271415Z 2714/2812 16012G22KT P6SM SCT010 BKN050 OVC080
      TEMPO 2714/2716 BKN009
     FM271600 18012KT P6SM SCT015
     FM272100 17010KT 6SM -SHRA VCTS SCT050CB BKN100
     FM280300 16010KT P6SM SCT050 BKN100=

USA.gov is the U.S. government's official web portal to all federal, state and local government web resources and services.